»·PEaware :: N424CP KSNA-KCRQ

N424CP :: KSNA-KCRQ

FLIGHT INFORMATION

Flight Status: Arrived
Operator: Privately registered:
United States
More flights under this callsign
Pilot: Nathan A. (17242)
Aircraft: BEECH AIRCRAFT DEBONAIR BONANZA
(BE33)
More flights by this aircraft type
Origin: KSNA John Wayne-Orange Co
United States
Destination: KCRQ McClellan-Palomar
United States
More flights between these airports :: More routes between these airports
Route: +V23 OCN
File this flight plan on PilotEdge
Remarks: I2 rating
Altitude:
(Current/Filed)
5,000ft
Speed:
(Current/Filed)
150kts
Departed: 06-Oct-18 04:58 PM
Arrived: 06-Oct-18 05:32 PM
Distance/Time
Traveled:
44nm/0:34
Distance/Time
To Go:
Arrived

Flight Plot

Page will automatically refresh every two minutes.


Map Options




Map Legend


Flown Route
Filed Route
Departure Airport
Arrival Airport
Navaid (VOR, NDB)
Fix

Horizontal Profiles

Position Reports

Time Latitude Longitude Heading Altitude Ground
Speed
06-Oct-18 16:41 33.667914 -117.871109 41 59ft 0kts
06-Oct-18 16:42 33.667914 -117.871109 41 59ft 0kts
06-Oct-18 16:43 33.667914 -117.871109 41 59ft 0kts
06-Oct-18 16:44 33.667914 -117.871109 41 59ft 0kts
06-Oct-18 16:45 33.667914 -117.871109 41 59ft 0kts
06-Oct-18 16:46 33.667914 -117.871109 41 59ft 0kts
06-Oct-18 16:47 33.667914 -117.871109 41 59ft 0kts
06-Oct-18 16:48 33.667914 -117.871109 41 59ft 0kts
06-Oct-18 16:49 33.667914 -117.871109 41 59ft 0kts
06-Oct-18 16:50 33.667914 -117.871109 41 59ft 0kts
06-Oct-18 16:51 33.667914 -117.871109 41 59ft 0kts
06-Oct-18 16:52 33.667921 -117.871101 37 59ft 0kts
06-Oct-18 16:53 33.668090 -117.871198 309 59ft 1kts
06-Oct-18 16:54 33.669877 -117.870148 40 60ft 13kts
06-Oct-18 16:55 33.673576 -117.866998 333 59ft 11kts
06-Oct-18 16:56 33.677348 -117.865020 25 59ft 25kts
06-Oct-18 16:57 33.679780 -117.863499 7 59ft 0kts
06-Oct-18 16:58 33.679943 -117.863589 304 59ft 0kts
06-Oct-18 16:59 33.680076 -117.864154 233 59ft 9kts
06-Oct-18 17:00 33.665705 -117.873085 192 496ft 92kts
06-Oct-18 17:01 33.635935 -117.879978 187 1805ft 89kts
06-Oct-18 17:02 33.616126 -117.883209 187 2589ft 87kts
06-Oct-18 17:03 33.592675 -117.870840 135 3615ft 92kts
06-Oct-18 17:04 33.580045 -117.850255 134 4294ft 93kts
06-Oct-18 17:05 33.565107 -117.824622 134 5018ft 99kts
06-Oct-18 17:06 33.542549 -117.791455 137 4977ft 145kts
06-Oct-18 17:07 33.515426 -117.754361 138 4971ft 149kts
06-Oct-18 17:08 33.487051 -117.717539 138 4973ft 152kts
06-Oct-18 17:09 33.457519 -117.679552 135 4969ft 158kts
06-Oct-18 17:10 33.428486 -117.638765 134 4970ft 164kts
06-Oct-18 17:11 33.396481 -117.599128 139 4968ft 167kts
06-Oct-18 17:12 33.362809 -117.560579 141 4964ft 167kts
06-Oct-18 17:13 33.328562 -117.522712 138 4968ft 169kts
06-Oct-18 17:14 33.295650 -117.483931 139 4965ft 168kts
06-Oct-18 17:15 33.262248 -117.444774 139 4967ft 168kts
06-Oct-18 17:16 33.230609 -117.403301 119 4959ft 172kts
06-Oct-18 17:17 33.233199 -117.347688 67 4960ft 177kts
06-Oct-18 17:18 33.249817 -117.292773 83 4962ft 175kts
06-Oct-18 17:19 33.257623 -117.235383 82 4961ft 175kts
06-Oct-18 17:20 33.264236 -117.177621 84 4961ft 175kts
06-Oct-18 17:21 33.271417 -117.120812 84 4961ft 172kts
06-Oct-18 17:22 33.270332 -117.065845 133 4782ft 169kts
06-Oct-18 17:23 33.230186 -117.041879 161 4118ft 161kts
06-Oct-18 17:24 33.190327 -117.022804 161 3522ft 145kts
06-Oct-18 17:25 33.154673 -117.008916 191 2906ft 131kts
06-Oct-18 17:26 33.149206 -117.044092 298 3211ft 138kts
06-Oct-18 17:27 33.159323 -117.083136 255 3669ft 111kts
06-Oct-18 17:28 33.153681 -117.123230 257 3022ft 133kts
06-Oct-18 17:29 33.147544 -117.161114 255 2187ft 115kts
06-Oct-18 17:30 33.142331 -117.196936 255 1537ft 103kts
06-Oct-18 17:31 33.136587 -117.229204 252 1075ft 98kts
06-Oct-18 17:32 33.132341 -117.256274 252 653ft 79kts
06-Oct-18 17:33 33.128466 -117.278895 254 308ft 46kts
06-Oct-18 17:34 33.127257 -117.282688 163 312ft 6kts
06-Oct-18 17:35 33.127085 -117.279511 80 309ft 0kts
06-Oct-18 17:36 33.127085 -117.279511 80 309ft 0kts
06-Oct-18 17:37 33.127085 -117.279511 80 309ft 0kts

Navigation Log

Ident Type
Flight plan parsing failed, navigation log unavailable